Time;durP1;ratioP1;P1;durP2;ratioP2;P2;SDS_P1;SDS_P2;PMS_P1;PMS_P2;Temp;Humidity;BMP_temperature;BMP_pressure;BME280_temperature;BME280_humidity;BME280_pressure;Samples;Min_cycle;Max_cycle;Signal;HPM_P1;HPM_P2
2022/06/16 00:01:56;;;;;;;3.88;1.58;;;16.00;97.50;;;;;;5087784;28;20063;-79
2022/06/16 00:04:22;;;;;;;;;;;16.00;97.60;;;;;;5070503;28;20062;-79
2022/06/16 00:06:48;;;;;;;2.17;0.50;;;16.00;97.80;;;;;;5069123;28;19904;-79
2022/06/16 00:09:14;;;;;;;;;;;15.90;97.80;;;;;;5087626;28;20034;-79
2022/06/16 00:11:39;;;;;;;0.70;0.30;;;15.90;97.80;;;;;;5087510;28;20380;-80
2022/06/16 00:14:05;;;;;;;1.88;0.70;;;15.90;97.80;;;;;;5088292;28;20117;-81
2022/06/16 00:16:31;;;;;;;1.42;0.45;;;15.90;97.90;;;;;;5087542;28;20032;-80
2022/06/16 00:18:57;;;;;;;;;;;15.90;97.90;;;;;;5070272;28;20023;-79
2022/06/16 00:21:22;;;;;;;1.67;0.50;;;15.90;98.10;;;;;;5087160;28;20015;-80
2022/06/16 00:23:48;;;;;;;;;;;15.90;98.00;;;;;;5069976;28;20032;-79
2022/06/16 00:26:19;;;;;;;0.98;0.40;;;15.90;98.10;;;;;;5088131;28;19908;-79
2022/06/16 00:28:46;;;;;;;1.38;0.60;;;15.90;98.30;;;;;;5069024;28;20572;-79
2022/06/16 00:31:13;;;;;;;5.40;0.80;;;15.90;98.20;;;;;;5069552;28;20113;-79
2022/06/16 00:33:40;;;;;;;3.10;0.77;;;15.90;98.50;;;;;;5069140;28;20138;-79
2022/06/16 00:36:06;;;;;;;4.78;0.50;;;15.80;98.40;;;;;;5087558;28;20538;-80
2022/06/16 00:38:32;;;;;;;1.85;0.60;;;15.80;98.40;;;;;;5069069;28;20043;-78
2022/06/16 00:40:58;;;;;;;;;;;15.80;98.50;;;;;;5069927;28;20782;-80
2022/06/16 00:43:24;;;;;;;1.67;0.60;;;15.70;98.60;;;;;;5069327;28;19908;-79
2022/06/16 00:46:06;;;;;;;2.90;0.45;;;15.80;98.60;;;;;;5069147;28;20024;-80
2022/06/16 00:48:42;;;;;;;1.92;0.47;;;15.80;98.60;;;;;;5068966;28;20035;-80
2022/06/16 00:51:13;;;;;;;2.47;0.60;;;15.80;98.60;;;;;;5086771;28;20028;-80
2022/06/16 00:53:40;;;;;;;2.10;0.50;;;15.80;99.00;;;;;;5068752;28;20035;-79
2022/06/16 00:56:09;;;;;;;2.28;0.45;;;15.80;98.80;;;;;;5068727;28;20024;-80
2022/06/16 00:58:40;;;;;;;1.98;0.40;;;15.80;98.70;;;;;;5068761;28;20119;-80
2022/06/16 01:01:07;;;;;;;1.85;0.50;;;15.80;98.70;;;;;;5068336;28;20081;-79
2022/06/16 01:06:24;;;;;;;1.48;0.55;;;15.70;99.50;;;;;;5087423;28;20074;-79
2022/06/16 01:08:54;;;;;;;0.95;0.40;;;15.70;99.60;;;;;;5068492;28;20511;-79
2022/06/16 01:14:45;;;;;;;2.03;0.50;;;15.60;99.90;;;;;;5086589;28;20043;-78
2022/06/16 01:17:45;;;;;;;1.80;0.70;;;15.50;99.90;;;;;;5068939;28;20103;-79
2022/06/16 01:20:38;;;;;;;3.65;0.80;;;15.40;99.90;;;;;;5086657;28;20040;-78
2022/06/16 01:23:18;;;;;;;2.03;0.60;;;15.30;99.90;;;;;;5085427;28;20500;-79
2022/06/16 01:25:49;;;;;;;4.20;0.75;;;15.20;99.90;;;;;;5087006;28;20028;-79
2022/06/16 01:28:29;;;;;;;1.75;0.63;;;15.20;99.90;;;;;;5086426;28;20571;-78
2022/06/16 01:31:04;;;;;;;2.20;0.60;;;15.20;99.90;;;;;;5067056;28;20039;-80
2022/06/16 01:33:53;;;;;;;0.95;0.40;;;15.10;99.90;;;;;;5068302;28;20070;-80
2022/06/16 01:36:36;;;;;;;3.65;0.80;;;15.10;99.90;;;;;;5086053;28;20499;-80
2022/06/16 01:39:21;;;;;;;1.80;0.50;;;15.10;99.90;;;;;;5068370;28;20043;-80
2022/06/16 01:41:57;;;;;;;1.40;0.50;;;15.10;99.90;;;;;;5068253;28;20092;-78
2022/06/16 01:44:29;;;;;;;1.10;0.50;;;15.10;99.90;;;;;;5086122;28;20504;-80
2022/06/16 01:47:00;;;;;;;5.28;0.70;;;15.10;99.90;;;;;;5086507;28;20032;-78
2022/06/16 01:49:34;;;;;;;1.35;0.50;;;15.10;99.90;;;;;;5068612;28;20036;-78
2022/06/16 01:52:11;;;;;;;1.48;0.55;;;15.10;99.90;;;;;;5067921;28;20028;-79
2022/06/16 01:54:41;;;;;;;1.83;1.17;;;15.00;99.90;;;;;;5068246;28;20031;-79
2022/06/16 01:57:27;;;;;;;1.75;0.52;;;15.00;99.90;;;;;;5068866;28;20028;-79
2022/06/16 02:00:11;;;;;;;1.92;0.80;;;14.90;99.90;;;;;;5068356;28;20508;-79
2022/06/16 02:02:39;;;;;;;3.53;0.70;;;14.80;99.90;;;;;;5070820;28;20082;-78
2022/06/16 02:05:19;;;;;;;2.72;0.60;;;14.80;99.90;;;;;;5090149;28;20024;-79
2022/06/16 02:07:56;;;;;;;4.05;0.70;;;14.80;99.90;;;;;;5072302;28;20126;-78
2022/06/16 02:10:27;;;;;;;1.83;0.50;;;14.70;99.90;;;;;;5071972;28;20427;-78
2022/06/16 02:12:56;;;;;;;1.02;0.40;;;14.70;99.90;;;;;;5072361;28;20024;-78
2022/06/16 02:15:40;;;;;;;3.88;0.60;;;14.60;99.90;;;;;;5072052;28;20032;-79
2022/06/16 02:18:09;;;;;;;1.73;0.55;;;14.60;99.90;;;;;;5090181;28;20059;-79
2022/06/16 02:21:01;;;;;;;1.45;0.60;;;14.60;99.90;;;;;;5071432;28;20123;-79
2022/06/16 02:23:27;;;;;;;1.45;0.52;;;14.50;99.90;;;;;;5077628;28;20254;-79
2022/06/16 02:25:56;;;;;;;2.28;0.80;;;14.50;99.90;;;;;;5090192;28;20410;-79
2022/06/16 02:28:23;;;;;;;1.27;0.40;;;14.60;99.90;;;;;;5089961;28;20040;-77
2022/06/16 02:31:06;;;;;;;2.63;0.45;;;14.50;99.90;;;;;;5071733;28;20032;-79
2022/06/16 02:33:45;;;;;;;1.73;0.50;;;14.50;99.90;;;;;;5071216;28;20135;-80
2022/06/16 02:36:16;;;;;;;2.75;0.60;;;14.50;99.90;;;;;;5089729;28;20204;-79
2022/06/16 02:39:12;;;;;;;2.22;0.63;;;14.50;99.90;;;;;;5089661;28;20035;-79
2022/06/16 02:42:13;;;;;;;1.58;0.57;;;14.50;99.90;;;;;;5071684;28;20458;-79
2022/06/16 02:45:01;;;;;;;2.10;0.90;;;14.50;99.90;;;;;;5013501;28;20043;-79
2022/06/16 02:47:56;;;;;;;4.30;1.00;;;14.40;99.90;;;;;;5089455;28;20388;-79
2022/06/16 02:50:42;;;;;;;3.00;0.95;;;14.40;99.90;;;;;;5070811;28;20126;-79
2022/06/16 02:53:13;;;;;;;7.65;4.18;;;14.40;99.90;;;;;;5088364;28;20059;-79
2022/06/16 02:55:45;;;;;;;2.38;0.82;;;14.40;99.90;;;;;;5071774;28;20036;-78
2022/06/16 02:58:17;;;;;;;1.95;0.57;;;14.50;99.90;;;;;;5071045;28;20039;-79
2022/06/16 03:00:52;;;;;;;1.77;0.70;;;14.40;99.90;;;;;;5071405;28;20073;-80
2022/06/16 03:03:25;;;;;;;2.10;0.63;;;14.50;99.90;;;;;;5070962;28;20702;-79
2022/06/16 03:05:53;;;;;;;1.65;0.70;;;14.50;99.90;;;;;;5070993;28;20024;-80
2022/06/16 03:08:20;;;;;;;3.10;0.93;;;14.50;99.90;;;;;;5089279;28;20099;-80
2022/06/16 03:10:52;;;;;;;1.98;0.60;;;14.50;99.90;;;;;;5071293;28;20557;-80
2022/06/16 03:13:29;;;;;;;1.20;0.50;;;14.50;99.90;;;;;;5070194;28;20040;-79
2022/06/16 03:15:57;;;;;;;2.97;0.60;;;14.60;99.90;;;;;;5089056;28;20624;-80
2022/06/16 03:18:23;;;;;;;6.03;0.70;;;14.60;99.90;;;;;;5088962;28;20122;-80
2022/06/16 03:20:49;;;;;;;3.08;0.70;;;14.70;99.90;;;;;;5088351;28;20040;-80
2022/06/16 03:23:15;;;;;;;;;;;14.70;99.90;;;;;;5071186;28;20054;-80
2022/06/16 03:25:42;;;;;;;4.20;1.20;;;14.70;99.90;;;;;;5070587;28;19914;-80
2022/06/16 03:28:09;;;;;;;5.40;0.50;;;14.70;99.90;;;;;;5089092;28;20269;-80
2022/06/16 03:30:36;;;;;;;1.58;0.60;;;14.70;99.90;;;;;;5069987;28;20031;-79
2022/06/16 03:33:03;;;;;;;6.55;0.70;;;14.80;99.90;;;;;;5070552;28;20031;-80
2022/06/16 03:35:29;;;;;;;2.72;0.60;;;14.80;99.90;;;;;;5070463;28;20243;-80
2022/06/16 03:37:55;;;;;;;1.67;0.40;;;14.80;99.90;;;;;;5070415;28;20602;-80
2022/06/16 03:40:22;;;;;;;;;;;14.90;99.90;;;;;;5070676;28;20071;-80
2022/06/16 03:42:48;;;;;;;2.45;0.50;;;15.00;99.90;;;;;;5070267;28;19904;-80
2022/06/16 03:45:13;;;;;;;;;;;15.00;99.90;;;;;;5071120;28;20028;-79
2022/06/16 03:47:39;;;;;;;2.40;0.60;;;15.10;99.90;;;;;;5070720;28;19942;-80
2022/06/16 03:50:06;;;;;;;2.05;0.50;;;15.20;99.90;;;;;;5070247;28;20484;-79
2022/06/16 03:52:32;;;;;;;3.50;0.77;;;15.40;99.90;;;;;;5088409;28;20593;-80
2022/06/16 03:54:57;;;;;;;;;;;15.60;99.90;;;;;;5070851;28;20028;-79
2022/06/16 03:57:23;;;;;;;4.05;1.10;;;15.70;99.90;;;;;;5070098;28;19969;-80
2022/06/16 03:59:48;;;;;;;;;;;15.90;99.90;;;;;;5070258;28;20036;-80
2022/06/16 04:02:14;;;;;;;9.02;0.80;;;16.20;99.90;;;;;;5088358;28;19908;-81
2022/06/16 04:04:39;;;;;;;;;;;16.50;99.90;;;;;;5088298;28;20901;-80
2022/06/16 04:07:05;;;;;;;2.35;0.70;;;16.80;99.90;;;;;;5069399;28;20010;-82
2022/06/16 04:09:31;;;;;;;2.85;0.60;;;17.30;99.90;;;;;;5069663;28;20024;-82
2022/06/16 04:11:57;;;;;;;1.30;0.50;;;17.70;99.30;;;;;;5069705;28;20043;-80
2022/06/16 04:14:22;;;;;;;5.93;0.60;;;18.10;98.10;;;;;;5087643;28;20024;-80
2022/06/16 04:16:52;;;;;;;3.88;1.17;;;18.40;96.80;;;;;;5088054;28;20032;-80
2022/06/16 04:19:23;;;;;;;1.92;0.50;;;18.60;96.20;;;;;;5086777;28;20028;-82
2022/06/16 04:21:49;;;;;;;2.10;0.82;;;18.70;96.00;;;;;;5087567;28;20040;-81
2022/06/16 04:24:17;;;;;;;5.78;0.70;;;18.80;95.90;;;;;;5069401;28;20115;-81
2022/06/16 04:26:45;;;;;;;5.63;0.82;;;18.90;95.60;;;;;;5068728;28;20028;-80
2022/06/16 04:29:11;;;;;;;3.63;0.93;;;19.00;95.20;;;;;;5087359;28;20420;-81
2022/06/16 04:31:38;;;;;;;4.32;0.68;;;19.20;94.60;;;;;;5069190;28;20028;-82
2022/06/16 04:34:04;;;;;;;2.58;0.65;;;19.40;94.00;;;;;;5070593;28;20393;-80
2022/06/16 04:36:30;;;;;;;1.77;0.68;;;19.50;93.50;;;;;;5066963;28;20551;-79
2022/06/16 04:38:56;;;;;;;1.88;0.40;;;19.60;93.20;;;;;;5054836;28;20112;-80
2022/06/16 04:41:22;;;;;;;4.63;0.80;;;19.80;92.90;;;;;;5057672;28;20126;-79
2022/06/16 04:43:48;;;;;;;4.32;0.68;;;19.90;92.50;;;;;;5067525;28;20024;-79
2022/06/16 04:46:15;;;;;;;2.58;0.80;;;20.00;92.30;;;;;;5070384;28;20115;-79
2022/06/16 04:48:41;;;;;;;2.45;0.50;;;20.10;92.10;;;;;;5068947;28;20070;-80
2022/06/16 04:51:06;;;;;;;1.95;0.60;;;20.20;91.80;;;;;;5068664;28;20044;-79
2022/06/16 04:53:32;;;;;;;1.73;0.43;;;20.20;91.50;;;;;;5085871;28;20042;-79
2022/06/16 04:56:00;;;;;;;7.10;0.70;;;20.40;91.40;;;;;;5069024;28;20047;-78
2022/06/16 04:58:27;;;;;;;4.10;0.50;;;20.40;91.30;;;;;;5087065;28;20043;-79
2022/06/16 05:00:54;;;;;;;5.35;0.60;;;20.50;91.10;;;;;;5086936;28;20032;-79
2022/06/16 05:03:21;;;;;;;2.53;0.60;;;20.70;90.70;;;;;;5068426;28;20830;-81
2022/06/16 05:05:49;;;;;;;5.45;0.50;;;20.80;90.40;;;;;;5065025;28;20044;-82
2022/06/16 05:08:16;;;;;;;7.47;0.70;;;21.00;90.20;;;;;;5068783;28;20059;-80
2022/06/16 05:10:42;;;;;;;6.40;0.75;;;21.10;89.20;;;;;;5069278;28;20455;-80
2022/06/16 05:13:09;;;;;;;5.25;0.93;;;21.30;88.30;;;;;;5069223;28;20408;-80
2022/06/16 05:15:35;;;;;;;6.95;1.60;;;21.50;88.00;;;;;;5068793;28;20024;-80
2022/06/16 05:18:02;;;;;;;2.90;0.75;;;21.60;87.30;;;;;;5087207;28;20035;-79
2022/06/16 05:20:27;;;;;;;4.90;0.75;;;21.80;86.40;;;;;;5068001;28;20139;-80
2022/06/16 05:22:53;;;;;;;2.38;0.60;;;22.00;85.60;;;;;;5068942;28;20107;-80
2022/06/16 05:25:19;;;;;;;5.93;0.68;;;22.10;84.80;;;;;;5086983;28;20302;-79
2022/06/16 05:27:45;;;;;;;2.03;0.50;;;22.30;84.20;;;;;;5083936;28;20024;-79
2022/06/16 05:30:11;;;;;;;8.05;0.82;;;22.40;83.60;;;;;;5068506;28;20036;-81
2022/06/16 05:32:37;;;;;;;2.40;0.65;;;22.60;83.60;;;;;;5068389;28;20035;-79
2022/06/16 05:35:03;;;;;;;5.72;0.82;;;22.60;81.40;;;;;;5068034;28;20047;-79
2022/06/16 05:37:31;;;;;;;2.55;0.65;;;22.80;81.00;;;;;;5086642;28;20484;-80
2022/06/16 05:39:56;;;;;;;12.15;0.70;;;23.00;79.30;;;;;;5068154;28;20097;-80
2022/06/16 05:42:22;;;;;;;7.75;0.90;;;23.30;76.00;;;;;;5086372;28;20047;-80
2022/06/16 05:44:48;;;;;;;2.63;0.50;;;23.60;69.90;;;;;;5086745;28;20495;-80
2022/06/16 05:47:13;;;;;;;1.05;0.52;;;24.40;63.90;;;;;;5068411;28;20448;-79
2022/06/16 05:49:40;;;;;;;10.20;2.08;;;25.30;60.60;;;;;;5067792;28;20066;-80
2022/06/16 05:52:10;;;;;;;6.10;0.80;;;25.70;57.40;;;;;;5068498;28;20076;-79
2022/06/16 05:54:37;;;;;;;4.90;1.05;;;26.20;56.00;;;;;;5085824;28;20115;-79
2022/06/16 05:57:03;;;;;;;5.97;0.65;;;27.10;53.30;;;;;;5086452;28;20099;-80
2022/06/16 05:59:29;;;;;;;3.10;1.05;;;28.60;49.30;;;;;;5068178;28;20551;-80
2022/06/16 06:01:55;;;;;;;7.93;0.88;;;30.10;44.20;;;;;;5069250;28;20081;-81
2022/06/16 06:04:21;;;;;;;4.70;0.70;;;31.20;40.10;;;;;;5067852;28;20077;-79
2022/06/16 06:06:47;;;;;;;4.70;1.30;;;32.40;37.80;;;;;;5086456;28;20099;-80
2022/06/16 06:17:27;;;;;;;4.68;0.82;;;35.70;29.90;;;;;;5086426;28;20035;-81
2022/06/16 06:19:53;;;;;;;5.75;1.00;;;35.90;29.20;;;;;;5085700;28;20048;-81
2022/06/16 06:22:24;;;;;;;5.45;1.27;;;36.50;29.10;;;;;;5067702;28;20024;-81
2022/06/16 06:24:54;;;;;;;9.23;1.23;;;37.10;28.40;;;;;;5067592;28;20123;-81
2022/06/16 06:27:21;;;;;;;4.07;0.90;;;36.90;28.10;;;;;;5067817;28;20357;-81
2022/06/16 06:29:48;;;;;;;2.28;0.80;;;37.20;27.30;;;;;;5085972;28;20058;-81
2022/06/16 06:32:16;;;;;;;3.65;0.85;;;37.40;27.10;;;;;;5067856;28;20123;-80
2022/06/16 06:34:42;;;;;;;2.30;0.98;;;37.60;26.30;;;;;;5067274;28;20512;-81
2022/06/16 06:37:10;;;;;;;10.32;1.08;;;37.60;26.20;;;;;;5085648;28;20043;-82
2022/06/16 06:39:35;;;;;;;6.63;0.77;;;37.50;26.40;;;;;;5085654;28;20024;-82
2022/06/16 06:42:04;;;;;;;8.40;0.90;;;37.80;26.90;;;;;;5067873;28;20035;-82
2022/06/16 06:44:30;;;;;;;4.93;1.08;;;37.70;26.40;;;;;;5068323;28;20032;-80
2022/06/16 06:46:56;;;;;;;3.97;1.02;;;37.80;26.20;;;;;;5086434;28;20091;-81
2022/06/16 06:49:22;;;;;;;9.30;0.93;;;37.90;25.80;;;;;;5088205;28;20112;-81
2022/06/16 06:51:47;;;;;;;9.95;0.85;;;38.00;25.40;;;;;;5071890;28;20032;-81
2022/06/16 06:54:14;;;;;;;2.10;0.85;;;37.60;25.90;;;;;;5088956;28;20028;-81
2022/06/16 06:56:40;;;;;;;8.95;0.95;;;37.60;25.50;;;;;;5071168;28;20450;-79
2022/06/16 06:59:09;;;;;;;4.35;0.70;;;38.00;25.20;;;;;;5071063;28;20016;-80
2022/06/16 07:01:35;;;;;;;10.23;1.08;;;37.60;25.40;;;;;;5089520;28;20223;-79
2022/06/16 07:04:02;;;;;;;3.67;1.05;;;37.50;25.70;;;;;;5088790;28;20385;-78
2022/06/16 07:06:28;;;;;;;4.10;1.10;;;37.40;25.30;;;;;;5088898;28;20038;-79
2022/06/16 07:08:54;;;;;;;4.03;1.20;;;37.60;25.10;;;;;;5089264;28;20042;-79
2022/06/16 07:11:20;;;;;;;7.82;1.30;;;37.60;25.50;;;;;;5088711;28;20111;-79
2022/06/16 07:13:45;;;;;;;8.38;1.23;;;37.60;25.20;;;;;;5089068;28;20052;-80
2022/06/16 07:16:11;;;;;;;3.28;1.35;;;37.80;25.30;;;;;;5070812;28;20070;-80
2022/06/16 07:18:37;;;;;;;2.88;0.90;;;38.10;25.20;;;;;;5088427;28;20027;-80
2022/06/16 07:21:04;;;;;;;2.65;0.98;;;38.30;24.50;;;;;;5088930;28;20030;-80
2022/06/16 07:23:29;;;;;;;1.80;0.80;;;38.10;24.70;;;;;;5058806;28;20094;-80
2022/06/16 07:25:55;;;;;;;2.67;0.98;;;37.90;24.70;;;;;;5083667;28;20039;-80
2022/06/16 07:28:21;;;;;;;7.70;1.00;;;37.80;24.50;;;;;;5070359;28;20063;-79
2022/06/16 07:30:47;;;;;;;5.25;1.05;;;37.80;24.80;;;;;;5088909;28;20036;-79
2022/06/16 07:33:13;;;;;;;2.90;0.70;;;38.00;25.00;;;;;;5086953;28;20329;-80
2022/06/16 07:35:43;;;;;;;2.63;0.80;;;37.70;25.20;;;;;;5088889;28;20043;-81
2022/06/16 07:38:10;;;;;;;4.53;1.00;;;37.30;25.10;;;;;;5088405;28;20028;-80
2022/06/16 07:40:36;;;;;;;6.65;0.95;;;37.40;25.00;;;;;;5088585;28;20032;-79
2022/06/16 07:43:01;;;;;;;6.50;1.00;;;37.30;25.50;;;;;;5087375;28;20035;-80
2022/06/16 07:45:29;;;;;;;1.95;0.85;;;37.30;25.40;;;;;;5070794;28;20042;-81
2022/06/16 07:47:57;;;;;;;3.65;1.25;;;37.50;25.40;;;;;;5069980;28;20482;-80
2022/06/16 07:50:24;;;;;;;5.22;1.17;;;37.10;24.80;;;;;;5087733;28;20040;-81
2022/06/16 07:52:50;;;;;;;7.22;1.30;;;37.50;24.60;;;;;;5088405;28;20046;-80
2022/06/16 07:55:18;;;;;;;3.17;0.93;;;37.50;24.60;;;;;;5087854;28;20027;-80
2022/06/16 07:57:47;;;;;;;3.85;1.20;;;37.10;24.80;;;;;;5069878;28;20467;-80
2022/06/16 08:00:16;;;;;;;6.90;0.88;;;37.00;25.20;;;;;;5087549;28;20056;-79
2022/06/16 08:02:42;;;;;;;6.70;1.05;;;37.00;25.60;;;;;;5087859;28;20486;-79
2022/06/16 08:05:12;;;;;;;2.97;0.65;;;37.20;25.60;;;;;;5069515;28;20035;-80
2022/06/16 08:07:39;;;;;;;2.55;1.20;;;37.40;24.80;;;;;;5087633;28;20666;-79
2022/06/16 08:10:07;;;;;;;4.78;0.95;;;37.50;24.60;;;;;;5087926;28;20518;-79
2022/06/16 08:12:34;;;;;;;1.70;0.80;;;37.70;24.20;;;;;;5087350;28;20028;-80
2022/06/16 08:15:01;;;;;;;2.90;1.10;;;37.80;24.50;;;;;;5087369;28;20304;-81
2022/06/16 08:17:31;;;;;;;9.50;1.02;;;37.80;24.80;;;;;;5069890;28;20020;-81
2022/06/16 08:19:58;;;;;;;6.57;1.00;;;37.90;25.10;;;;;;5069645;28;20020;-81
2022/06/16 08:22:26;;;;;;;2.15;0.90;;;37.80;24.80;;;;;;5068552;28;20032;-81
2022/06/16 08:24:52;;;;;;;6.90;1.08;;;37.70;24.70;;;;;;5060503;28;20032;-81
2022/06/16 08:27:20;;;;;;;4.50;0.95;;;37.70;24.70;;;;;;5069715;28;20031;-82
2022/06/16 08:29:46;;;;;;;5.30;0.77;;;37.90;24.60;;;;;;5049466;28;20052;-82
2022/06/16 08:32:15;;;;;;;3.42;1.00;;;38.00;24.10;;;;;;5048851;28;20547;-81
2022/06/16 08:34:40;;;;;;;5.65;0.75;;;37.60;24.20;;;;;;5067361;28;20075;-81
2022/06/16 08:37:06;;;;;;;6.07;1.60;;;37.70;24.10;;;;;;5067491;28;20056;-80
2022/06/16 08:39:32;;;;;;;5.25;0.88;;;37.40;24.70;;;;;;5066823;28;20029;-81
2022/06/16 08:42:09;;;;;;;9.98;1.13;;;37.40;25.20;;;;;;5049167;28;20075;-82
2022/06/16 08:44:43;;;;;;;5.03;1.00;;;37.60;25.00;;;;;;5048605;28;20447;-79
2022/06/16 08:47:21;;;;;;;4.35;1.10;;;37.60;24.90;;;;;;5066942;28;20047;-81
2022/06/16 08:50:05;;;;;;;6.82;1.00;;;37.60;24.70;;;;;;5066902;28;20050;-80
2022/06/16 08:52:46;;;;;;;5.40;0.95;;;37.50;24.70;;;;;;5066480;28;20539;-81
2022/06/16 08:55:21;;;;;;;4.00;0.80;;;37.50;24.10;;;;;;5066794;28;20025;-80
2022/06/16 08:58:04;;;;;;;4.75;0.98;;;37.00;24.50;;;;;;5048369;28;20025;-79
2022/06/16 09:00:38;;;;;;;5.80;0.90;;;36.60;25.10;;;;;;5048980;28;20126;-82
2022/06/16 09:03:14;;;;;;;4.43;0.93;;;36.50;25.70;;;;;;5049167;28;20024;-83
2022/06/16 09:06:06;;;;;;;4.13;1.20;;;36.90;25.50;;;;;;5066313;28;20060;-80
2022/06/16 09:08:44;;;;;;;2.80;1.23;;;37.10;25.80;;;;;;5048152;28;20508;-80
2022/06/16 09:11:38;;;;;;;5.85;1.35;;;37.40;25.50;;;;;;5047880;28;20043;-82
2022/06/16 09:15:10;;;;;;;3.92;0.68;;;37.60;24.80;;;;;;5079562;28;20634;-79
2022/06/16 09:17:19;;;;;;;2.42;1.00;;;36.90;24.50;;;;;;5074741;28;20119;-80
2022/06/16 09:20:00;;;;;;;6.43;1.17;;;35.90;25.30;;;;;;5048151;28;20067;-81
2022/06/16 09:22:40;;;;;;;2.10;0.75;;;35.90;25.60;;;;;;5048646;28;20102;-80
2022/06/16 09:25:20;;;;;;;3.38;0.80;;;36.10;25.50;;;;;;5066332;28;20028;-80
2022/06/16 09:27:55;;;;;;;2.70;0.75;;;36.70;25.60;;;;;;5066749;28;20107;-81
2022/06/16 09:30:31;;;;;;;11.18;1.23;;;37.20;25.10;;;;;;5049025;28;20555;-82
2022/06/16 09:33:08;;;;;;;2.38;0.90;;;37.40;24.50;;;;;;5066182;28;20056;-81
2022/06/16 09:35:54;;;;;;;7.80;0.93;;;37.60;23.70;;;;;;5066063;28;20033;-82
2022/06/16 09:38:44;;;;;;;7.68;0.80;;;37.20;24.40;;;;;;5048357;28;20044;-81
2022/06/16 09:44:45;;;;;;;2.40;1.05;;;36.60;25.10;;;;;;5066357;28;20257;-82
2022/06/16 09:47:15;;;;;;;2.47;0.80;;;36.90;25.10;;;;;;5030975;28;20037;-80
2022/06/16 09:49:46;;;;;;;10.05;0.90;;;37.10;24.90;;;;;;5048159;28;20409;-81
2022/06/16 09:52:23;;;;;;;6.32;0.95;;;37.30;25.10;;;;;;5065871;28;20039;-81
2022/06/16 09:54:57;;;;;;;5.22;1.13;;;37.40;25.00;;;;;;5048574;28;20123;-82
2022/06/16 09:57:28;;;;;;;4.25;0.85;;;37.20;24.80;;;;;;5066373;28;20016;-81
2022/06/16 10:00:09;;;;;;;4.20;0.98;;;36.80;25.00;;;;;;5048432;28;20480;-81
2022/06/16 10:02:55;;;;;;;2.80;0.80;;;35.80;25.20;;;;;;5065201;28;20056;-81
2022/06/16 10:05:57;;;;;;;2.92;0.90;;;35.10;25.70;;;;;;5066267;28;20064;-81
2022/06/16 10:08:44;;;;;;;5.30;0.85;;;34.50;26.40;;;;;;5047633;28;20028;-81
2022/06/16 10:11:16;;;;;;;2.13;0.95;;;34.20;27.20;;;;;;5048087;28;20032;-81
2022/06/16 10:14:12;;;;;;;2.92;1.05;;;34.00;27.70;;;;;;5047813;28;20037;-80
2022/06/16 10:16:50;;;;;;;8.27;0.80;;;34.10;27.50;;;;;;5065792;28;20024;-79
2022/06/16 10:19:18;;;;;;;3.20;0.75;;;34.00;27.40;;;;;;5066250;28;20020;-81
2022/06/16 10:21:44;;;;;;;4.13;1.85;;;33.80;27.20;;;;;;5048651;28;20124;-81
2022/06/16 10:24:10;;;;;;;2.53;0.77;;;33.70;27.70;;;;;;5052664;28;20119;-81
2022/06/16 10:26:36;;;;;;;6.68;0.98;;;33.50;27.30;;;;;;5052321;28;20033;-81
2022/06/16 10:29:23;;;;;;;8.05;0.95;;;33.30;27.70;;;;;;5039662;28;20168;-79
2022/06/16 10:31:51;;;;;;;2.30;0.98;;;33.00;28.50;;;;;;5044216;28;20036;-81
2022/06/16 10:34:35;;;;;;;5.75;0.70;;;32.90;27.50;;;;;;5050364;28;20049;-80
2022/06/16 10:37:12;;;;;;;3.28;0.75;;;32.30;27.90;;;;;;5049589;28;20160;-80
2022/06/16 10:40:07;;;;;;;1.50;0.88;;;32.20;28.60;;;;;;5049700;28;20029;-80
2022/06/16 10:42:40;;;;;;;3.85;0.88;;;32.10;28.60;;;;;;5030940;28;20032;-80
2022/06/16 10:45:05;;;;;;;6.82;0.80;;;32.00;28.20;;;;;;5031796;28;20024;-80
2022/06/16 10:47:35;;;;;;;4.47;0.90;;;31.70;28.10;;;;;;5031579;28;20025;-80
2022/06/16 10:50:04;;;;;;;5.70;1.10;;;31.60;29.10;;;;;;5049109;28;20068;-79
2022/06/16 10:52:30;;;;;;;4.88;1.05;;;31.60;28.10;;;;;;5049013;28;20020;-80
2022/06/16 10:55:01;;;;;;;2.45;0.70;;;31.50;28.50;;;;;;5031652;28;20036;-80
2022/06/16 10:57:31;;;;;;;8.05;1.00;;;31.10;28.70;;;;;;5031834;28;20033;-81
2022/06/16 11:00:02;;;;;;;2.90;1.05;;;30.80;29.20;;;;;;5031121;28;20025;-80
2022/06/16 11:02:31;;;;;;;2.45;0.90;;;30.50;29.20;;;;;;5031753;28;20036;-80
2022/06/16 11:05:03;;;;;;;2.80;1.08;;;30.30;29.50;;;;;;5049410;28;20013;-80
2022/06/16 11:07:38;;;;;;;9.55;1.00;;;30.10;29.80;;;;;;5031485;28;20028;-80
2022/06/16 11:10:12;;;;;;;3.13;0.90;;;30.00;30.40;;;;;;5049351;28;20109;-81
2022/06/16 11:12:41;;;;;;;7.40;1.45;;;30.10;31.20;;;;;;5030809;28;20044;-80
2022/06/16 11:15:21;;;;;;;5.57;1.05;;;30.20;31.00;;;;;;5031095;28;20013;-81
2022/06/16 11:17:52;;;;;;;5.15;1.02;;;30.50;30.70;;;;;;5030454;28;20045;-81
2022/06/16 11:20:43;;;;;;;3.88;1.05;;;30.80;30.20;;;;;;5048976;28;20056;-81
2022/06/16 11:23:21;;;;;;;3.95;0.98;;;31.10;30.20;;;;;;5030655;28;20087;-82
2022/06/16 11:25:54;;;;;;;6.85;0.80;;;31.30;29.50;;;;;;5030883;28;20090;-81
2022/06/16 11:28:22;;;;;;;1.88;0.85;;;31.40;29.30;;;;;;5034022;28;20037;-82
2022/06/16 11:30:47;;;;;;;6.82;1.35;;;31.60;29.40;;;;;;5068197;28;20221;-82
2022/06/16 11:34:06;;;;;;;9.25;1.00;;;31.70;29.10;;;;;;5050927;28;20119;-82
2022/06/16 11:36:36;;;;;;;11.43;0.90;;;31.70;29.00;;;;;;5067996;28;20119;-82
2022/06/16 11:39:10;;;;;;;4.43;0.98;;;31.70;29.40;;;;;;5068327;28;20030;-82
2022/06/16 11:41:36;;;;;;;3.50;1.10;;;31.50;29.10;;;;;;5068838;28;20029;-82
2022/06/16 11:44:05;;;;;;;15.52;1.42;;;31.40;28.90;;;;;;5050170;28;20024;-82
2022/06/16 11:46:43;;;;;;;3.83;1.02;;;31.40;29.50;;;;;;5049979;28;20037;-82
2022/06/16 11:49:29;;;;;;;3.80;0.98;;;31.50;29.30;;;;;;5068375;28;20032;-82
2022/06/16 11:52:26;;;;;;;6.00;1.55;;;31.70;29.50;;;;;;5050522;28;20047;-82
2022/06/16 11:55:14;;;;;;;12.25;1.85;;;31.70;28.50;;;;;;5050124;28;20090;-82
2022/06/16 11:57:55;;;;;;;9.52;0.90;;;31.70;29.20;;;;;;5067698;28;20033;-82
2022/06/16 12:00:36;;;;;;;3.40;1.00;;;31.80;29.60;;;;;;5049310;28;20028;-82
2022/06/16 12:03:21;;;;;;;8.68;1.45;;;31.80;29.00;;;;;;5050239;28;20524;-82
2022/06/16 12:06:14;;;;;;;7.07;1.30;;;31.70;29.00;;;;;;5050597;28;20605;-83
2022/06/16 12:08:58;;;;;;;5.32;1.10;;;31.70;29.50;;;;;;5067582;28;20024;-83
2022/06/16 12:12:01;;;;;;;2.13;0.88;;;31.50;29.10;;;;;;5067899;28;20501;-82
2022/06/16 12:14:42;;;;;;;8.35;1.20;;;31.40;28.70;;;;;;5038675;28;20037;-82
2022/06/16 12:17:28;;;;;;;9.45;1.10;;;31.30;28.70;;;;;;5067815;28;20587;-82
2022/06/16 12:20:26;;;;;;;2.80;0.90;;;31.40;28.70;;;;;;5049539;28;20394;-82
2022/06/16 12:23:08;;;;;;;2.58;0.73;;;31.20;28.40;;;;;;5045815;28;20037;-82
2022/06/16 12:25:56;;;;;;;18.02;1.55;;;31.10;28.30;;;;;;5050218;28;20112;-82
2022/06/16 12:28:46;;;;;;;3.95;0.90;;;30.90;28.80;;;;;;5049606;28;20052;-82
2022/06/16 12:31:50;;;;;;;11.50;0.93;;;30.90;29.00;;;;;;5049555;28;20067;-82
2022/06/16 12:34:26;;;;;;;2.33;1.15;;;30.70;28.40;;;;;;4983624;28;20054;-82
2022/06/16 12:36:55;;;;;;;6.82;1.13;;;30.60;29.10;;;;;;4969596;28;20042;-82
2022/06/16 12:39:53;;;;;;;5.93;0.88;;;30.30;28.70;;;;;;5012222;28;20143;-82
2022/06/16 12:42:23;;;;;;;5.25;0.80;;;30.40;29.50;;;;;;5022449;28;20106;-82
2022/06/16 12:45:01;;;;;;;9.57;1.08;;;30.60;29.60;;;;;;5049175;28;20378;-81
2022/06/16 12:47:37;;;;;;;8.23;1.00;;;30.70;30.00;;;;;;5048980;28;20038;-82
2022/06/16 12:50:02;;;;;;;;;;;30.90;29.80;;;;;;5068315;28;20037;-82
2022/06/16 12:52:38;;;;;;;8.07;1.20;;;31.10;29.90;;;;;;5066803;28;19930;-81
2022/06/16 12:55:34;;;;;;;14.93;1.17;;;31.20;29.70;;;;;;5049343;28;20270;-82
2022/06/16 12:58:08;;;;;;;6.90;1.23;;;31.30;29.30;;;;;;5049076;28;20066;-82
2022/06/16 13:00:40;;;;;;;5.38;0.70;;;31.30;29.40;;;;;;5048314;28;20041;-82
2022/06/16 13:03:30;;;;;;;4.85;0.90;;;31.30;29.20;;;;;;5049141;28;20029;-81
2022/06/16 13:05:57;;;;;;;2.20;1.10;;;31.30;29.60;;;;;;5049006;28;20475;-82
2022/06/16 13:08:26;;;;;;;4.13;1.00;;;31.30;29.40;;;;;;5049031;28;20024;-82
2022/06/16 13:10:58;;;;;;;4.80;0.90;;;31.30;29.30;;;;;;5066672;28;20516;-81
2022/06/16 13:13:45;;;;;;;6.15;0.90;;;31.30;29.40;;;;;;5066636;28;20020;-81
2022/06/16 13:16:17;;;;;;;3.30;0.90;;;31.30;28.90;;;;;;5066502;28;20040;-82
2022/06/16 13:18:51;;;;;;;4.53;1.35;;;31.00;28.70;;;;;;5066753;28;20032;-81
2022/06/16 13:21:26;;;;;;;2.22;0.80;;;30.60;29.50;;;;;;5048392;28;20086;-81
2022/06/16 13:24:02;;;;;;;3.33;0.77;;;30.30;30.00;;;;;;5066752;28;20031;-82
2022/06/16 13:26:32;;;;;;;6.68;0.90;;;30.10;30.50;;;;;;5048458;28;20035;-82
2022/06/16 13:29:08;;;;;;;4.30;0.98;;;30.00;30.40;;;;;;5048438;28;20052;-82
2022/06/16 13:31:42;;;;;;;3.22;0.70;;;29.90;30.30;;;;;;5048493;28;20041;-82
2022/06/16 13:34:18;;;;;;;3.67;1.55;;;29.80;30.00;;;;;;5066542;28;20039;-83
2022/06/16 13:36:44;;;;;;;2.65;0.90;;;29.60;30.10;;;;;;5066634;28;20024;-83